createdAt,value
2019-01-22T00:00:47.387Z,20.67
2019-01-22T00:01:56.912Z,20.69
2019-01-22T00:03:06.696Z,20.72
2019-01-22T00:04:15.721Z,20.72
2019-01-22T00:05:25.349Z,20.72
2019-01-22T00:06:34.906Z,20.66
2019-01-22T00:07:44.239Z,20.62
2019-01-22T00:08:54.065Z,20.61
2019-01-22T00:10:03.607Z,20.64
2019-01-22T00:11:14.458Z,20.61
2019-01-22T00:12:23.580Z,20.51
2019-01-22T00:13:33.114Z,20.43
2019-01-22T00:14:42.771Z,20.5
2019-01-22T00:15:51.926Z,20.52
2019-01-22T00:17:01.760Z,20.48
2019-01-22T00:18:11.671Z,20.51
2019-01-22T00:19:20.975Z,20.52
2019-01-22T00:20:30.010Z,20.43
2019-01-22T00:21:39.826Z,20.42
2019-01-22T00:22:49.426Z,20.47
2019-01-22T00:23:58.709Z,20.42
2019-01-22T00:25:08.059Z,20.42
2019-01-22T00:26:17.847Z,20.39
2019-01-22T00:27:26.867Z,20.42
2019-01-22T00:28:35.679Z,20.32
2019-01-22T00:29:44.986Z,20.36
2019-01-22T00:30:54.334Z,20.39
2019-01-22T00:32:03.916Z,20.39
2019-01-22T00:33:12.977Z,20.39
2019-01-22T00:34:22.244Z,20.39
2019-01-22T00:35:31.674Z,20.31
2019-01-22T00:36:40.498Z,20.31
2019-01-22T00:37:49.869Z,20.24
2019-01-22T00:38:59.262Z,20.29
2019-01-22T00:40:08.342Z,20.16
2019-01-22T00:41:18.055Z,20.2
2019-01-22T00:42:27.126Z,20.24
2019-01-22T00:43:36.707Z,20.2
2019-01-22T00:44:46.948Z,20.13
2019-01-22T00:45:57.362Z,20.18
2019-01-22T00:47:07.727Z,20.28
2019-01-22T00:48:17.793Z,20.2
2019-01-22T00:49:27.468Z,20.21
2019-01-22T00:50:37.012Z,20.21
2019-01-22T00:51:46.378Z,20.16
2019-01-22T00:52:55.495Z,20.1
2019-01-22T00:54:05.338Z,20.21
2019-01-22T00:55:14.156Z,20.05
2019-01-22T00:56:23.449Z,20.08
2019-01-22T00:57:33.269Z,20.1
2019-01-22T00:58:42.064Z,20.08
2019-01-22T00:59:51.257Z,20.1
2019-01-22T01:01:00.840Z,20.06
2019-01-22T01:02:09.650Z,20.03
2019-01-22T01:03:18.685Z,20.05
2019-01-22T01:04:27.712Z,20.02
2019-01-22T01:05:37.015Z,19.98
2019-01-22T01:06:46.334Z,20.01
2019-01-22T01:07:55.922Z,20.02
2019-01-22T01:09:06.413Z,19.98
2019-01-22T01:10:15.181Z,19.99
2019-01-22T01:11:23.992Z,20.01
2019-01-22T01:12:33.546Z,19.98
2019-01-22T01:13:42.797Z,19.92
2019-01-22T01:14:52.605Z,20.01
2019-01-22T01:16:02.112Z,19.81
2019-01-22T01:17:11.380Z,19.88
2019-01-22T01:18:20.914Z,19.86
2019-01-22T01:19:30.237Z,19.83
2019-01-22T01:20:39.792Z,19.91
2019-01-22T01:21:49.068Z,19.83
2019-01-22T01:22:58.388Z,19.91
2019-01-22T01:24:07.461Z,19.84
2019-01-22T01:25:16.509Z,19.88
2019-01-22T01:26:26.364Z,19.86
2019-01-22T01:27:36.005Z,19.83
2019-01-22T01:28:45.394Z,19.81
2019-01-22T01:29:55.008Z,19.78
2019-01-22T01:31:04.177Z,19.73
2019-01-22T01:32:13.501Z,19.83
2019-01-22T01:33:22.507Z,19.74
2019-01-22T01:34:31.774Z,19.77
2019-01-22T01:35:41.014Z,19.74
2019-01-22T01:36:50.128Z,19.8
2019-01-22T01:37:59.470Z,19.77
2019-01-22T01:39:08.236Z,19.76
2019-01-22T01:40:17.591Z,19.74
2019-01-22T01:41:26.935Z,19.73
2019-01-22T01:42:36.577Z,19.76
2019-01-22T01:43:45.408Z,19.69
2019-01-22T01:44:54.241Z,19.66
2019-01-22T01:46:03.302Z,19.78
2019-01-22T01:47:12.828Z,19.63
2019-01-22T01:48:22.113Z,19.65
2019-01-22T01:49:31.217Z,19.69
2019-01-22T01:50:40.479Z,19.71
2019-01-22T01:51:50.325Z,19.65
2019-01-22T01:52:59.425Z,19.69
2019-01-22T01:54:08.949Z,19.68
2019-01-22T01:55:17.736Z,19.73
2019-01-22T01:56:27.047Z,19.61
2019-01-22T01:57:36.192Z,19.69
2019-01-22T01:58:45.995Z,19.69
2019-01-22T01:59:55.565Z,19.55
2019-01-22T02:01:04.982Z,19.71
2019-01-22T02:02:14.075Z,19.62
2019-01-22T02:03:23.785Z,19.59
2019-01-22T02:04:33.134Z,19.61
2019-01-22T02:05:43.102Z,19.58
2019-01-22T02:06:53.041Z,19.61
2019-01-22T02:08:03.571Z,19.61
2019-01-22T02:09:14.378Z,19.58
2019-01-22T02:10:24.211Z,19.56
2019-01-22T02:11:33.885Z,19.55
2019-01-22T02:12:43.241Z,19.56
2019-01-22T02:13:52.493Z,19.55
2019-01-22T02:15:01.789Z,19.55
2019-01-22T02:16:11.110Z,19.54
2019-01-22T02:17:20.367Z,19.51
2019-01-22T02:18:29.393Z,19.5
2019-01-22T02:19:38.665Z,19.56
2019-01-22T02:20:48.222Z,19.41
2019-01-22T02:21:57.242Z,19.58
2019-01-22T02:23:06.843Z,19.46
2019-01-22T02:24:16.117Z,19.5
2019-01-22T02:25:25.649Z,19.47
2019-01-22T02:26:35.719Z,19.43
2019-01-22T02:27:44.760Z,19.44
2019-01-22T02:28:53.583Z,19.4
2019-01-22T02:30:03.606Z,19.48
2019-01-22T02:31:13.447Z,19.48
2019-01-22T02:32:22.721Z,19.5
2019-01-22T02:33:32.869Z,19.44
2019-01-22T02:34:41.890Z,19.47
2019-01-22T02:35:51.705Z,19.47
2019-01-22T02:37:01.562Z,19.48
2019-01-22T02:38:10.401Z,19.43
2019-01-22T02:39:20.273Z,19.39
2019-01-22T02:40:30.087Z,19.32
2019-01-22T02:41:39.374Z,19.44
2019-01-22T02:42:49.456Z,19.44
2019-01-22T02:43:58.745Z,19.32
2019-01-22T02:45:08.542Z,19.37
2019-01-22T02:46:18.109Z,19.36
2019-01-22T02:47:27.211Z,19.32
2019-01-22T02:48:36.764Z,19.39
2019-01-22T02:49:46.039Z,19.36
2019-01-22T02:50:55.616Z,19.36
2019-01-22T02:52:04.940Z,19.4
2019-01-22T02:53:14.729Z,19.39
2019-01-22T02:54:24.234Z,19.32
2019-01-22T02:55:33.809Z,19.32
2019-01-22T02:56:43.604Z,19.32
2019-01-22T02:57:52.811Z,19.32
2019-01-22T02:59:02.606Z,19.28
2019-01-22T03:00:12.391Z,19.25
2019-01-22T03:01:22.051Z,19.29
2019-01-22T03:02:31.942Z,19.28
2019-01-22T03:03:41.889Z,19.25
2019-01-22T03:04:52.003Z,19.25
2019-01-22T03:06:02.198Z,19.31
2019-01-22T03:07:12.474Z,19.23
2019-01-22T03:08:22.134Z,19.25
2019-01-22T03:09:31.891Z,19.31
2019-01-22T03:10:41.687Z,19.28
2019-01-22T03:11:50.977Z,19.21
2019-01-22T03:12:59.765Z,19.29
2019-01-22T03:14:09.366Z,19.22
2019-01-22T03:15:18.678Z,19.25
2019-01-22T03:16:28.309Z,19.23
2019-01-22T03:17:37.840Z,19.18
2019-01-22T03:18:46.890Z,19.16
2019-01-22T03:19:56.157Z,19.22
2019-01-22T03:21:05.678Z,19.26
2019-01-22T03:22:15.044Z,19.11
2019-01-22T03:23:24.324Z,19.14
2019-01-22T03:24:33.633Z,19.22
2019-01-22T03:25:43.164Z,19.16
2019-01-22T03:26:52.700Z,19.18
2019-01-22T03:28:01.983Z,19.11
2019-01-22T03:29:11.480Z,19.22
2019-01-22T03:30:20.788Z,19.19
2019-01-22T03:31:30.641Z,19.19
2019-01-22T03:32:40.418Z,19.1
2019-01-22T03:33:49.968Z,19.11
2019-01-22T03:34:58.989Z,19.07
2019-01-22T03:36:08.255Z,19.11
2019-01-22T03:37:17.522Z,19.1
2019-01-22T03:38:27.986Z,19.1
2019-01-22T03:39:37.564Z,19.06
2019-01-22T03:40:47.553Z,19.11
2019-01-22T03:41:57.038Z,19.1
2019-01-22T03:43:06.305Z,19.11
2019-01-22T03:44:15.844Z,19.08
2019-01-22T03:45:25.355Z,19.06
2019-01-22T03:46:34.884Z,19.07
2019-01-22T03:47:43.879Z,18.99
2019-01-22T03:48:52.911Z,19.07
2019-01-22T03:50:02.459Z,19.04
2019-01-22T03:51:12.040Z,19.02
2019-01-22T03:52:21.579Z,19
2019-01-22T03:53:30.843Z,18.98
2019-01-22T03:54:40.405Z,19
2019-01-22T03:55:49.986Z,18.99
2019-01-22T03:57:00.386Z,19.02
2019-01-22T03:58:10.545Z,18.98
2019-01-22T03:59:20.588Z,18.99
2019-01-22T04:00:30.839Z,18.94
2019-01-22T04:01:40.741Z,19
2019-01-22T04:02:50.535Z,19
2019-01-22T04:03:59.580Z,18.98
2019-01-22T04:05:08.888Z,18.94
2019-01-22T04:06:18.442Z,18.95
2019-01-22T04:07:27.680Z,18.92
2019-01-22T04:08:37.655Z,18.92
2019-01-22T04:09:46.915Z,18.95
2019-01-22T04:10:56.471Z,18.98
2019-01-22T04:12:06.266Z,18.94
2019-01-22T04:13:15.748Z,18.91
2019-01-22T04:14:25.073Z,18.95
2019-01-22T04:15:34.591Z,18.84
2019-01-22T04:16:44.493Z,18.95
2019-01-22T04:17:53.839Z,18.92
2019-01-22T04:19:03.186Z,18.88
2019-01-22T04:20:14.190Z,18.94
2019-01-22T04:21:23.260Z,18.99
2019-01-22T04:22:32.540Z,18.98
2019-01-22T04:23:41.572Z,18.92
2019-01-22T04:24:50.862Z,18.9
2019-01-22T04:26:00.878Z,18.8
2019-01-22T04:27:10.168Z,18.88
2019-01-22T04:28:19.695Z,18.81
2019-01-22T04:29:29.498Z,18.85
2019-01-22T04:30:39.045Z,18.84
2019-01-22T04:31:48.805Z,18.81
2019-01-22T04:32:58.354Z,18.88
2019-01-22T04:34:07.927Z,18.85
2019-01-22T04:35:17.480Z,18.87
2019-01-22T04:36:26.819Z,18.78
2019-01-22T04:37:36.597Z,18.88
2019-01-22T04:38:45.900Z,18.8
2019-01-22T04:39:55.468Z,18.88
2019-01-22T04:41:05.072Z,18.84
2019-01-22T04:42:14.872Z,18.82
2019-01-22T04:43:24.135Z,18.8
2019-01-22T04:44:33.663Z,18.82
2019-01-22T04:45:43.190Z,18.81
2019-01-22T04:46:52.957Z,18.78
2019-01-22T04:48:03.351Z,18.82
2019-01-22T04:49:14.211Z,18.76
2019-01-22T04:50:23.946Z,18.81
2019-01-22T04:51:33.288Z,18.87
2019-01-22T04:52:43.339Z,18.82
2019-01-22T04:53:53.419Z,18.73
2019-01-22T04:55:02.743Z,18.8
2019-01-22T04:56:12.818Z,18.8
2019-01-22T04:57:22.374Z,18.84
2019-01-22T04:58:31.706Z,18.8
2019-01-22T04:59:41.023Z,18.67
2019-01-22T05:00:50.810Z,18.78
2019-01-22T05:02:00.080Z,18.7
2019-01-22T05:03:09.831Z,18.73
2019-01-22T05:04:19.631Z,18.7
2019-01-22T05:05:29.163Z,18.73
2019-01-22T05:06:38.461Z,18.72
2019-01-22T05:07:47.510Z,18.72
2019-01-22T05:08:57.301Z,18.7
2019-01-22T05:10:06.324Z,18.76
2019-01-22T05:11:15.706Z,18.7
2019-01-22T05:12:24.713Z,18.73
2019-01-22T05:13:34.027Z,18.67
2019-01-22T05:14:44.011Z,18.65
2019-01-22T05:15:53.534Z,18.7
2019-01-22T05:17:02.793Z,18.8
2019-01-22T05:18:12.317Z,18.58
2019-01-22T05:19:21.377Z,18.7
2019-01-22T05:20:30.387Z,18.8
2019-01-22T05:21:39.637Z,18.66
2019-01-22T05:22:48.656Z,18.72
2019-01-22T05:23:57.645Z,18.67
2019-01-22T05:25:07.160Z,18.67
2019-01-22T05:26:16.441Z,18.63
2019-01-22T05:27:25.973Z,18.63
2019-01-22T05:28:35.498Z,18.65
2019-01-22T05:29:44.712Z,18.66
2019-01-22T05:30:54.010Z,18.57
2019-01-22T05:32:03.285Z,18.63
2019-01-22T05:33:12.292Z,18.66
2019-01-22T05:34:22.370Z,18.62
2019-01-22T05:35:32.378Z,18.62
2019-01-22T05:36:42.149Z,18.62
2019-01-22T05:37:52.290Z,18.7
2019-01-22T05:39:02.062Z,18.6
2019-01-22T05:40:12.004Z,18.57
2019-01-22T05:41:21.891Z,18.63
2019-01-22T05:42:31.163Z,18.7
2019-01-22T05:43:40.308Z,18.66
2019-01-22T05:44:50.053Z,18.58
2019-01-22T05:45:59.695Z,18.66
2019-01-22T05:47:09.741Z,18.6
2019-01-22T05:48:19.025Z,18.55
2019-01-22T05:49:28.341Z,18.55
2019-01-22T05:50:37.909Z,18.57
2019-01-22T05:51:47.429Z,18.58
2019-01-22T05:52:56.698Z,18.6
2019-01-22T05:54:05.723Z,18.62
2019-01-22T05:55:14.993Z,18.54
2019-01-22T05:56:24.526Z,18.55
2019-01-22T05:57:34.057Z,18.57
2019-01-22T05:58:43.356Z,18.63
2019-01-22T05:59:53.111Z,18.65
2019-01-22T06:01:02.098Z,18.52
2019-01-22T06:02:11.309Z,18.55
2019-01-22T06:03:20.583Z,18.58
2019-01-22T06:04:30.300Z,18.55
2019-01-22T06:05:39.775Z,18.55
2019-01-22T06:06:49.014Z,18.62
2019-01-22T06:07:57.968Z,18.54
2019-01-22T06:09:07.986Z,18.6
2019-01-22T06:10:17.233Z,18.65
2019-01-22T06:11:28.117Z,18.57
2019-01-22T06:12:37.623Z,18.65
2019-01-22T06:13:47.383Z,18.67
2019-01-22T06:14:56.840Z,18.67
2019-01-22T06:16:06.342Z,18.67
2019-01-22T06:17:15.947Z,18.63
2019-01-22T06:18:25.682Z,18.73
2019-01-22T06:19:34.922Z,18.75
2019-01-22T06:20:44.133Z,18.6
2019-01-22T06:21:53.388Z,18.67
2019-01-22T06:23:03.116Z,18.67
2019-01-22T06:24:12.653Z,18.65
2019-01-22T06:25:21.912Z,18.6
2019-01-22T06:26:31.182Z,18.62
2019-01-22T06:27:40.179Z,18.55
2019-01-22T06:28:49.193Z,18.65
2019-01-22T06:29:58.732Z,18.66
2019-01-22T06:31:08.242Z,18.72
2019-01-22T06:32:17.696Z,18.6
2019-01-22T06:33:27.408Z,18.6
2019-01-22T06:34:36.138Z,18.57
2019-01-22T06:35:45.607Z,18.55
2019-01-22T06:36:55.097Z,18.52
2019-01-22T06:38:04.607Z,18.58
2019-01-22T06:39:14.990Z,18.6
2019-01-22T06:40:24.718Z,18.52
2019-01-22T06:41:33.922Z,18.55
2019-01-22T06:42:42.877Z,18.58
2019-01-22T06:43:52.592Z,18.52
2019-01-22T06:45:01.847Z,18.52
2019-01-22T06:46:10.861Z,18.47
2019-01-22T06:47:20.361Z,18.54
2019-01-22T06:48:29.663Z,18.57
2019-01-22T06:49:38.908Z,18.54
2019-01-22T06:50:47.924Z,18.54
2019-01-22T06:51:56.632Z,18.48
2019-01-22T06:53:06.092Z,18.47
2019-01-22T06:54:15.873Z,18.44
2019-01-22T06:55:24.612Z,18.48
2019-01-22T06:56:33.876Z,18.48
2019-01-22T06:57:43.375Z,18.44
2019-01-22T06:58:52.634Z,18.42
2019-01-22T07:00:01.617Z,18.42
2019-01-22T07:01:10.581Z,18.44
2019-01-22T07:02:19.778Z,18.47
2019-01-22T07:03:29.248Z,18.45
2019-01-22T07:04:38.211Z,18.54
2019-01-22T07:05:47.685Z,18.54
2019-01-22T07:06:56.938Z,18.7
2019-01-22T07:08:06.662Z,18.7
2019-01-22T07:09:16.138Z,18.78
2019-01-22T07:10:25.921Z,18.88
2019-01-22T07:11:35.394Z,18.92
2019-01-22T07:12:44.641Z,18.94
2019-01-22T07:13:53.870Z,19.1
2019-01-22T07:15:03.188Z,19.14
2019-01-22T07:16:14.441Z,19.29
2019-01-22T07:17:24.212Z,19.37
2019-01-22T07:18:33.460Z,19.43
2019-01-22T07:19:42.556Z,19.44
2019-01-22T07:20:52.025Z,19.62
2019-01-22T07:22:01.259Z,19.61
2019-01-22T07:23:10.252Z,19.68
2019-01-22T07:24:20.039Z,19.73
2019-01-22T07:25:29.038Z,19.86
2019-01-22T07:26:38.053Z,19.96
2019-01-22T07:27:47.363Z,19.95
2019-01-22T07:28:56.356Z,20.1
2019-01-22T07:30:05.594Z,20.1
2019-01-22T07:31:15.110Z,20.2
2019-01-22T07:32:24.882Z,20.2
2019-01-22T07:33:33.952Z,20.29
2019-01-22T07:34:42.943Z,20.39
2019-01-22T07:35:52.951Z,20.41
2019-01-22T07:37:02.230Z,20.39
2019-01-22T07:38:11.745Z,20.5
2019-01-22T07:39:21.003Z,20.57
2019-01-22T07:40:30.825Z,20.52
2019-01-22T07:41:39.856Z,20.55
2019-01-22T07:42:49.360Z,20.58
2019-01-22T07:43:58.377Z,20.55
2019-01-22T07:45:07.630Z,20.64
2019-01-22T07:46:16.652Z,20.55
2019-01-22T07:47:26.423Z,20.66
2019-01-22T07:48:35.923Z,20.61
2019-01-22T07:49:45.191Z,20.59
2019-01-22T07:50:54.529Z,20.57
2019-01-22T07:52:04.305Z,20.54
2019-01-22T07:53:14.165Z,20.57
2019-01-22T07:54:23.700Z,20.62
2019-01-22T07:55:32.991Z,20.64
2019-01-22T07:56:42.009Z,20.55
2019-01-22T07:57:51.297Z,20.59
2019-01-22T07:59:00.354Z,20.61
2019-01-22T08:00:09.645Z,20.52
2019-01-22T08:01:19.908Z,20.54
2019-01-22T08:02:29.172Z,20.59
2019-01-22T08:03:38.704Z,20.55
2019-01-22T08:04:48.479Z,20.66
2019-01-22T08:05:57.745Z,20.55
2019-01-22T08:07:07.014Z,20.67
2019-01-22T08:08:16.270Z,20.67
2019-01-22T08:09:25.498Z,20.69
2019-01-22T08:10:35.024Z,20.72
2019-01-22T08:11:44.280Z,20.69
2019-01-22T08:12:53.812Z,20.73
2019-01-22T08:14:03.049Z,20.8
2019-01-22T08:15:12.589Z,20.84
2019-01-22T08:16:22.102Z,20.92
2019-01-22T08:17:31.415Z,20.82
2019-01-22T08:18:40.945Z,20.92
2019-01-22T08:19:50.505Z,20.97
2019-01-22T08:20:59.810Z,20.91
2019-01-22T08:22:08.926Z,20.99
2019-01-22T08:23:18.354Z,20.92
2019-01-22T08:24:27.660Z,20.99
2019-01-22T08:25:36.894Z,20.95
2019-01-22T08:26:45.925Z,20.94
2019-01-22T08:27:55.525Z,21.04
2019-01-22T08:29:04.559Z,20.97
2019-01-22T08:30:13.330Z,20.98
2019-01-22T08:31:22.985Z,20.98
2019-01-22T08:32:32.313Z,20.97
2019-01-22T08:33:42.353Z,20.98
2019-01-22T08:34:51.986Z,20.97
2019-01-22T08:36:01.514Z,20.99
2019-01-22T08:37:10.755Z,20.95
2019-01-22T08:38:20.048Z,20.91
2019-01-22T08:39:29.436Z,20.89
2019-01-22T08:40:38.714Z,20.82
2019-01-22T08:41:48.289Z,20.85
2019-01-22T08:42:57.803Z,20.87
2019-01-22T08:44:07.048Z,20.88
2019-01-22T08:45:16.085Z,20.79
2019-01-22T08:46:24.862Z,20.8
2019-01-22T08:47:33.916Z,20.82
2019-01-22T08:48:42.674Z,20.77
2019-01-22T08:49:51.677Z,20.76
2019-01-22T08:51:01.017Z,20.76
2019-01-22T08:52:10.252Z,20.67
2019-01-22T08:53:19.802Z,20.72
2019-01-22T08:54:29.536Z,20.66
2019-01-22T08:55:39.112Z,20.69
2019-01-22T08:56:48.494Z,20.7
2019-01-22T08:57:58.099Z,20.73
2019-01-22T08:59:09.001Z,20.64
2019-01-22T09:00:21.918Z,20.61
2019-01-22T09:01:35.410Z,20.64
2019-01-22T09:02:44.841Z,20.59
2019-01-22T09:03:54.128Z,20.54
2019-01-22T09:05:03.690Z,20.51
2019-01-22T09:06:12.780Z,20.52
2019-01-22T09:07:22.352Z,20.47
2019-01-22T09:08:31.671Z,20.47
2019-01-22T09:09:40.985Z,20.55
2019-01-22T09:10:50.321Z,20.43
2019-01-22T09:11:59.864Z,20.5
2019-01-22T09:13:08.872Z,20.38
2019-01-22T09:14:18.177Z,20.42
2019-01-22T09:15:27.476Z,20.36
2019-01-22T09:16:37.033Z,20.42
2019-01-22T09:17:46.278Z,20.42
2019-01-22T09:18:55.874Z,20.47
2019-01-22T09:20:04.989Z,20.5
2019-01-22T09:21:14.311Z,20.48
2019-01-22T09:22:23.133Z,20.54
2019-01-22T09:23:32.397Z,20.47
2019-01-22T09:24:41.487Z,20.52
2019-01-22T09:25:50.536Z,20.58
2019-01-22T09:27:00.062Z,20.64
2019-01-22T09:28:09.076Z,20.7
2019-01-22T09:29:18.572Z,20.73
2019-01-22T09:30:29.934Z,20.67
2019-01-22T09:31:39.202Z,20.72
2019-01-22T09:32:48.296Z,20.8
2019-01-22T09:33:57.307Z,20.82
2019-01-22T09:35:10.502Z,20.76
2019-01-22T09:36:19.497Z,20.89
2019-01-22T09:37:29.326Z,20.84
2019-01-22T09:38:38.955Z,20.85
2019-01-22T09:39:49.265Z,20.94
2019-01-22T09:40:58.878Z,20.95
2019-01-22T09:42:08.360Z,20.94
2019-01-22T09:43:17.885Z,20.95
2019-01-22T09:44:27.354Z,20.99
2019-01-22T09:45:37.086Z,20.91
2019-01-22T09:46:46.782Z,20.97
2019-01-22T09:47:55.533Z,20.95
2019-01-22T09:49:04.834Z,20.97
2019-01-22T09:50:14.443Z,20.98
2019-01-22T09:51:23.468Z,20.94
2019-01-22T09:52:32.805Z,20.98
2019-01-22T09:53:42.348Z,20.94
2019-01-22T09:54:52.171Z,20.98
2019-01-22T09:56:05.608Z,20.98
2019-01-22T09:57:15.369Z,21.01
2019-01-22T09:58:24.134Z,20.97
2019-01-22T09:59:33.439Z,20.98
2019-01-22T10:00:43.004Z,20.95
2019-01-22T10:01:52.327Z,20.92
2019-01-22T10:03:02.049Z,20.92
2019-01-22T10:04:11.803Z,20.91
2019-01-22T10:05:21.311Z,20.89
2019-01-22T10:06:30.784Z,20.89
2019-01-22T10:07:40.011Z,20.87
2019-01-22T10:08:48.867Z,20.89
2019-01-22T10:09:57.891Z,20.85
2019-01-22T10:11:07.372Z,20.87
2019-01-22T10:12:16.898Z,20.84
2019-01-22T10:13:25.660Z,20.76
2019-01-22T10:14:35.199Z,20.82
2019-01-22T10:15:44.302Z,20.82
2019-01-22T10:16:53.836Z,20.77
2019-01-22T10:18:03.151Z,20.73
2019-01-22T10:19:12.206Z,20.64
2019-01-22T10:20:21.210Z,20.72
2019-01-22T10:21:30.550Z,20.7
2019-01-22T10:22:39.290Z,20.64
2019-01-22T10:23:51.793Z,20.73
2019-01-22T10:25:01.076Z,20.7
2019-01-22T10:26:10.372Z,20.69
2019-01-22T10:27:19.925Z,20.67
2019-01-22T10:28:29.464Z,20.62
2019-01-22T10:29:38.758Z,20.66
2019-01-22T10:30:48.573Z,20.62
2019-01-22T10:31:57.433Z,20.58
2019-01-22T10:33:07.010Z,20.61
2019-01-22T10:34:16.535Z,20.59
2019-01-22T10:35:25.873Z,20.61
2019-01-22T10:36:35.208Z,20.57
2019-01-22T10:37:44.207Z,20.61
2019-01-22T10:38:53.992Z,20.62
2019-01-22T10:40:03.478Z,20.7
2019-01-22T10:41:13.475Z,20.69
2019-01-22T10:42:22.752Z,20.72
2019-01-22T10:43:31.759Z,20.74
2019-01-22T10:44:41.114Z,20.73
2019-01-22T10:45:49.895Z,20.66
2019-01-22T10:46:58.921Z,20.72
2019-01-22T10:48:08.214Z,20.76
2019-01-22T10:49:17.519Z,20.85
2019-01-22T10:50:26.819Z,20.8
2019-01-22T10:51:40.784Z,20.84
2019-01-22T10:52:50.058Z,20.88
2019-01-22T10:53:59.588Z,20.91
2019-01-22T10:55:09.111Z,20.95
2019-01-22T10:56:18.702Z,21.01
2019-01-22T10:57:27.968Z,20.94
2019-01-22T10:58:37.286Z,20.99
2019-01-22T10:59:46.420Z,21.06
2019-01-22T11:00:55.450Z,21.06
2019-01-22T11:02:05.033Z,21.03
2019-01-22T11:03:14.143Z,21.07
2019-01-22T11:04:23.374Z,21.04
2019-01-22T11:05:32.945Z,21.06
2019-01-22T11:06:42.228Z,21.07
2019-01-22T11:07:51.227Z,21.06
2019-01-22T11:09:00.371Z,21.06
2019-01-22T11:10:09.632Z,21.06
2019-01-22T11:11:18.917Z,21.04
2019-01-22T11:12:27.932Z,21.04
2019-01-22T11:13:36.946Z,21.03
2019-01-22T11:14:46.207Z,21.12
2019-01-22T11:15:56.012Z,21.04
2019-01-22T11:17:05.528Z,21.03
2019-01-22T11:18:15.068Z,21.03
2019-01-22T11:19:27.845Z,21.07
2019-01-22T11:20:37.433Z,20.97
2019-01-22T11:21:46.864Z,20.97
2019-01-22T11:22:56.138Z,20.95
2019-01-22T11:24:05.742Z,20.99
2019-01-22T11:25:14.814Z,20.98
2019-01-22T11:26:23.827Z,20.94
2019-01-22T11:27:33.165Z,20.92
2019-01-22T11:28:42.436Z,20.95
2019-01-22T11:29:51.753Z,20.91
2019-01-22T11:31:00.776Z,20.89
2019-01-22T11:32:10.053Z,20.84
2019-01-22T11:33:19.097Z,20.91
2019-01-22T11:34:28.851Z,20.85
2019-01-22T11:35:38.385Z,20.8
2019-01-22T11:36:47.789Z,20.8
2019-01-22T11:37:57.307Z,20.76
2019-01-22T11:39:06.593Z,20.89
2019-01-22T11:40:15.895Z,20.79
2019-01-22T11:41:25.178Z,20.77
2019-01-22T11:42:34.005Z,20.79
2019-01-22T11:43:43.124Z,20.76
2019-01-22T11:44:52.148Z,20.72
2019-01-22T11:46:01.491Z,20.7
2019-01-22T11:47:10.820Z,20.66
2019-01-22T11:48:20.147Z,20.69
2019-01-22T11:49:29.709Z,20.73
2019-01-22T11:50:39.247Z,20.69
2019-01-22T11:51:48.323Z,20.7
2019-01-22T11:52:57.328Z,20.7
2019-01-22T11:54:06.647Z,20.67
2019-01-22T11:55:16.492Z,20.73
2019-01-22T11:56:25.780Z,20.72
2019-01-22T11:57:34.858Z,20.74
2019-01-22T11:58:43.899Z,20.73
2019-01-22T11:59:53.471Z,20.67
2019-01-22T12:01:02.545Z,20.67
2019-01-22T12:02:12.363Z,20.69
2019-01-22T12:03:21.855Z,20.64
2019-01-22T12:04:30.939Z,20.79
2019-01-22T12:05:40.267Z,20.82
2019-01-22T12:06:49.064Z,20.79
2019-01-22T12:07:58.614Z,20.76
2019-01-22T12:09:07.905Z,20.73
2019-01-22T12:10:17.728Z,20.82
2019-01-22T12:11:27.271Z,20.84
2019-01-22T12:12:37.315Z,20.82
2019-01-22T12:13:53.810Z,20.88
2019-01-22T12:15:04.033Z,20.94
2019-01-22T12:16:13.349Z,20.97
2019-01-22T12:17:22.878Z,20.94
2019-01-22T12:18:32.271Z,20.95
2019-01-22T12:19:42.329Z,21.01
2019-01-22T12:20:51.470Z,21.07
2019-01-22T12:22:00.533Z,21.04
2019-01-22T12:23:09.798Z,21.07
2019-01-22T12:24:18.859Z,21.07
2019-01-22T12:25:28.673Z,21.13
2019-01-22T12:26:37.996Z,21.16
2019-01-22T12:27:46.770Z,21.1
2019-01-22T12:28:56.088Z,21.12
2019-01-22T12:30:06.242Z,21.07
2019-01-22T12:31:16.043Z,21.12
2019-01-22T12:32:25.344Z,21.12
2019-01-22T12:33:34.594Z,21.21
2019-01-22T12:34:43.621Z,21.17
2019-01-22T12:35:53.464Z,21.12
2019-01-22T12:37:02.768Z,21.01
2019-01-22T12:38:11.904Z,21.06
2019-01-22T12:39:21.218Z,21.13
2019-01-22T12:40:30.820Z,21.06
2019-01-22T12:41:40.587Z,21.01
2019-01-22T12:42:49.682Z,21.06
2019-01-22T12:43:59.206Z,21.03
2019-01-22T12:45:08.291Z,21.1
2019-01-22T12:46:17.861Z,21.07
2019-01-22T12:47:26.984Z,20.95
2019-01-22T12:48:36.342Z,20.98
2019-01-22T12:49:45.432Z,21.03
2019-01-22T12:50:55.070Z,20.92
2019-01-22T12:52:04.454Z,20.98
2019-01-22T12:53:13.265Z,20.98
2019-01-22T12:54:22.073Z,20.95
2019-01-22T12:55:31.668Z,20.94
2019-01-22T12:56:41.425Z,20.94
2019-01-22T12:57:50.975Z,20.88
2019-01-22T12:58:59.768Z,20.84
2019-01-22T13:00:09.079Z,20.89
2019-01-22T13:01:18.929Z,20.87
2019-01-22T13:02:28.686Z,20.77
2019-01-22T13:03:38.003Z,20.79
2019-01-22T13:04:47.545Z,20.76
2019-01-22T13:05:57.376Z,20.84
2019-01-22T13:07:06.735Z,20.85
2019-01-22T13:08:16.562Z,20.77
2019-01-22T13:09:26.114Z,20.73
2019-01-22T13:10:35.452Z,20.69
2019-01-22T13:11:45.022Z,20.7
2019-01-22T13:12:53.812Z,20.67
2019-01-22T13:14:02.950Z,20.73
2019-01-22T13:15:12.348Z,20.69
2019-01-22T13:16:21.716Z,20.72
2019-01-22T13:17:30.808Z,20.67
2019-01-22T13:18:42.059Z,20.67
2019-01-22T13:19:50.892Z,20.66
2019-01-22T13:21:00.387Z,20.64
2019-01-22T13:22:09.901Z,20.77
2019-01-22T13:23:20.839Z,20.77
2019-01-22T13:24:30.427Z,20.82
2019-01-22T13:25:40.285Z,20.77
2019-01-22T13:26:49.121Z,20.88
2019-01-22T13:27:58.186Z,20.91
2019-01-22T13:29:07.864Z,20.95
2019-01-22T13:30:17.885Z,20.98
2019-01-22T13:31:27.758Z,20.98
2019-01-22T13:32:37.267Z,20.99
2019-01-22T13:33:46.611Z,20.99
2019-01-22T13:34:56.246Z,21.06
2019-01-22T13:36:05.364Z,21.12
2019-01-22T13:37:14.896Z,21.09
2019-01-22T13:38:24.498Z,21.13
2019-01-22T13:39:34.351Z,21.14
2019-01-22T13:40:43.694Z,21.13
2019-01-22T13:41:53.310Z,21.14
2019-01-22T13:43:03.185Z,21.21
2019-01-22T13:44:12.565Z,21.24
2019-01-22T13:45:22.224Z,21.28
2019-01-22T13:46:31.981Z,21.27
2019-01-22T13:47:41.284Z,21.29
2019-01-22T13:48:50.811Z,21.24
2019-01-22T13:50:00.384Z,21.22
2019-01-22T13:51:09.721Z,21.24
2019-01-22T13:52:18.507Z,21.24
2019-01-22T13:53:27.969Z,21.27
2019-01-22T13:54:37.339Z,21.27
2019-01-22T13:55:46.704Z,21.27
2019-01-22T13:56:55.977Z,21.27
2019-01-22T13:58:05.307Z,21.24
2019-01-22T13:59:14.883Z,21.14
2019-01-22T14:00:24.239Z,21.22
2019-01-22T14:01:33.803Z,21.14
2019-01-22T14:02:43.377Z,21.19
2019-01-22T14:03:52.558Z,21.14
2019-01-22T14:05:02.142Z,21.13
2019-01-22T14:06:11.469Z,21.13
2019-01-22T14:07:21.271Z,21.1
2019-01-22T14:08:30.821Z,21.09
2019-01-22T14:09:39.861Z,21.03
2019-01-22T14:10:49.171Z,21.01
2019-01-22T14:11:58.261Z,21.06
2019-01-22T14:13:07.879Z,21.09
2019-01-22T14:14:16.640Z,21.03
2019-01-22T14:15:26.219Z,20.98
2019-01-22T14:16:35.805Z,20.99
2019-01-22T14:17:44.624Z,20.95
2019-01-22T14:18:54.191Z,20.98
2019-01-22T14:20:03.511Z,20.97
2019-01-22T14:21:13.110Z,20.94
2019-01-22T14:22:26.159Z,20.91
2019-01-22T14:23:35.488Z,20.94
2019-01-22T14:24:44.506Z,20.84
2019-01-22T14:25:53.831Z,20.85
2019-01-22T14:27:03.666Z,20.88
2019-01-22T14:28:12.995Z,20.88
2019-01-22T14:29:22.992Z,20.89
2019-01-22T14:30:32.422Z,20.84
2019-01-22T14:31:41.990Z,20.74
2019-01-22T14:32:51.523Z,20.82
2019-01-22T14:34:00.841Z,20.79
2019-01-22T14:35:10.167Z,20.8
2019-01-22T14:36:19.250Z,20.79
2019-01-22T14:37:28.579Z,20.77
2019-01-22T14:38:38.153Z,20.73
2019-01-22T14:39:47.700Z,20.69
2019-01-22T14:40:57.325Z,20.7
2019-01-22T14:42:06.905Z,20.67
2019-01-22T14:43:16.680Z,20.67
2019-01-22T14:44:26.513Z,20.67
2019-01-22T14:45:35.798Z,20.72
2019-01-22T14:46:45.329Z,20.73
2019-01-22T14:47:54.599Z,20.82
2019-01-22T14:49:03.412Z,20.87
2019-01-22T14:50:12.734Z,20.74
2019-01-22T14:51:22.083Z,20.79
2019-01-22T14:52:31.099Z,20.85
2019-01-22T14:53:40.647Z,20.88
2019-01-22T14:54:49.674Z,20.92
2019-01-22T14:55:58.968Z,20.98
2019-01-22T14:57:08.237Z,20.97
2019-01-22T14:58:17.311Z,21.06